MHRO

Juan Manuel Galvez International Airport

Roatan Island, Honduras
TAF MHRO 181025Z 1812/1912 09018KT 9999 SCT025 TX32/1820Z TN27/1912Z
Issued Valid From Valid To
Jun-18 @ 10:25 UTC
(3 hours ago)
Jun-18 @ 12:00 UTC
(an hour ago)
Jun-19 @ 12:00 UTC
(in 23 hours)
Jun-18 @ 12:00 to Jun-19 @ 12:00
TAF MHRO 181025Z 1812/1912 09018KT 9999 SCT025 TX32/1820Z TN27/1912Z
Wind Visibility Clouds
90° at 18 knots 10,000+ meters
  • Scattered at 2,500' AGL
TAF MHRO 181025Z 1812/1912 09018KT 9999 SCT025 TX32/1820Z TN27/1912Z
Issued Jun-18 @ 10:25 UTC
(3 hours ago)
Valid From Jun-18 @ 12:00 UTC
(an hour ago)
Valid To Jun-19 @ 12:00 UTC
(in 23 hours)
Jun-18 @ 12:00 - Jun-19 @ 12:00
Wind Visibility
90° at 18 knots 10,000+ meters
Clouds
  • Scattered at 2,500' AGL